Terminal Aerodrome Forecast
Issued by NWS

Home | Current Version | Previous Version | Text Only | Print | Product List | Glossary Off
Versions: 1 2 3 4 5 6 7 8 9 10 11 12 13 14 15 16 17 18 19

080
FTUS43 KGRB 181131
TAFAUW
TAF
KAUW 181131Z 1812/1912 23005KT 1/2SM FG VV002
      TEMPO 1812/1814 1SM BR OVC004
     FM181400 23009KT 1 1/2SM BR SCT003 OVC006
     FM181700 23009KT P6SM SCT006
     FM190000 22008KT P6SM SCT150
     FM190600 23006KT 3SM BR SCT070 SCT150
     FM190800 23003KT 1/2SM FG BKN002 BKN070=

USA.gov is the U.S. government's official web portal to all federal, state and local government web resources and services.